sensor_id;sensor_type;location;lat;lon;timestamp;noise_LAeq;noise_LA_min;noise_LA_max;noise_LA01;noise_LA95
61270;Laerm;47150;53.032;8.960;2023-03-01T00:03:28;37.76;36.39;39.15;;
61270;Laerm;47150;53.032;8.960;2023-03-01T00:05:53;37.78;36.16;38.97;;
61270;Laerm;47150;53.032;8.960;2023-03-01T00:08:19;37.79;36.55;38.96;;
61270;Laerm;47150;53.032;8.960;2023-03-01T00:10:44;37.80;36.63;38.89;;
61270;Laerm;47150;53.032;8.960;2023-03-01T00:13:09;37.80;36.50;39.10;;
61270;Laerm;47150;53.032;8.960;2023-03-01T00:15:38;37.82;36.40;39.03;;
61270;Laerm;47150;53.032;8.960;2023-03-01T00:18:04;37.83;36.39;39.04;;
61270;Laerm;47150;53.032;8.960;2023-03-01T00:20:30;37.84;36.45;38.92;;
61270;Laerm;47150;53.032;8.960;2023-03-01T00:22:55;37.86;36.55;39.03;;
61270;Laerm;47150;53.032;8.960;2023-03-01T00:25:21;37.87;36.60;39.10;;
61270;Laerm;47150;53.032;8.960;2023-03-01T00:27:46;37.89;36.57;39.28;;
61270;Laerm;47150;53.032;8.960;2023-03-01T00:30:12;37.90;36.12;39.01;;
61270;Laerm;47150;53.032;8.960;2023-03-01T00:32:38;37.92;36.59;39.29;;
61270;Laerm;47150;53.032;8.960;2023-03-01T00:35:03;37.92;36.60;39.16;;
61270;Laerm;47150;53.032;8.960;2023-03-01T00:37:29;37.94;36.77;39.14;;
61270;Laerm;47150;53.032;8.960;2023-03-01T00:39:55;37.95;36.66;39.26;;
61270;Laerm;47150;53.032;8.960;2023-03-01T00:42:20;37.96;36.69;39.11;;
61270;Laerm;47150;53.032;8.960;2023-03-01T00:44:47;37.96;36.76;39.11;;
61270;Laerm;47150;53.032;8.960;2023-03-01T00:47:12;37.97;36.73;39.31;;
61270;Laerm;47150;53.032;8.960;2023-03-01T00:49:39;37.97;36.59;39.19;;
61270;Laerm;47150;53.032;8.960;2023-03-01T00:52:04;37.97;36.58;39.11;;
61270;Laerm;47150;53.032;8.960;2023-03-01T00:54:29;37.99;36.71;39.24;;
61270;Laerm;47150;53.032;8.960;2023-03-01T00:56:55;37.99;36.52;39.29;;
61270;Laerm;47150;53.032;8.960;2023-03-01T00:59:20;38.00;36.57;39.32;;
61270;Laerm;47150;53.032;8.960;2023-03-01T01:01:45;38.00;36.72;39.09;;
61270;Laerm;47150;53.032;8.960;2023-03-01T01:04:12;38.01;36.87;39.37;;
61270;Laerm;47150;53.032;8.960;2023-03-01T01:06:44;38.01;36.83;39.42;;
61270;Laerm;47150;53.032;8.960;2023-03-01T01:09:12;38.01;36.49;39.19;;
61270;Laerm;47150;53.032;8.960;2023-03-01T01:11:50;38.02;36.87;39.24;;
61270;Laerm;47150;53.032;8.960;2023-03-01T01:14:16;38.03;36.91;39.44;;
61270;Laerm;47150;53.032;8.960;2023-03-01T01:16:42;38.02;36.53;39.11;;
61270;Laerm;47150;53.032;8.960;2023-03-01T01:19:09;38.02;36.80;39.28;;
61270;Laerm;47150;53.032;8.960;2023-03-01T01:21:35;38.03;36.83;39.22;;
61270;Laerm;47150;53.032;8.960;2023-03-01T01:24:03;38.04;36.70;39.21;;
61270;Laerm;47150;53.032;8.960;2023-03-01T01:26:31;38.05;36.85;39.20;;
61270;Laerm;47150;53.032;8.960;2023-03-01T01:28:57;38.06;36.86;39.15;;
61270;Laerm;47150;53.032;8.960;2023-03-01T01:31:24;38.07;36.69;39.32;;
61270;Laerm;47150;53.032;8.960;2023-03-01T01:33:50;38.07;36.64;39.44;;
61270;Laerm;47150;53.032;8.960;2023-03-01T01:36:15;38.06;36.80;39.34;;
61270;Laerm;47150;53.032;8.960;2023-03-01T01:38:41;38.06;36.73;39.31;;
61270;Laerm;47150;53.032;8.960;2023-03-01T01:43:36;38.08;36.82;39.20;;
61270;Laerm;47150;53.032;8.960;2023-03-01T01:48:54;38.09;36.74;39.22;;
61270;Laerm;47150;53.032;8.960;2023-03-01T01:51:25;38.09;36.51;39.26;;
61270;Laerm;47150;53.032;8.960;2023-03-01T01:53:53;38.10;36.87;39.43;;
61270;Laerm;47150;53.032;8.960;2023-03-01T01:56:20;38.09;36.91;39.21;;
61270;Laerm;47150;53.032;8.960;2023-03-01T01:58:47;38.11;36.75;39.25;;
61270;Laerm;47150;53.032;8.960;2023-03-01T02:01:12;38.10;36.90;39.45;;
61270;Laerm;47150;53.032;8.960;2023-03-01T02:03:39;38.10;36.74;39.22;;
61270;Laerm;47150;53.032;8.960;2023-03-01T02:08:41;38.09;36.88;39.27;;
61270;Laerm;47150;53.032;8.960;2023-03-01T02:11:08;38.10;36.88;39.35;;
61270;Laerm;47150;53.032;8.960;2023-03-01T02:13:35;38.09;36.84;39.29;;
61270;Laerm;47150;53.032;8.960;2023-03-01T02:16:13;38.07;36.80;39.36;;
61270;Laerm;47150;53.032;8.960;2023-03-01T02:18:40;38.06;36.87;39.24;;
61270;Laerm;47150;53.032;8.960;2023-03-01T02:23:37;38.06;36.65;39.54;;
61270;Laerm;47150;53.032;8.960;2023-03-01T02:26:11;38.05;36.65;39.18;;
61270;Laerm;47150;53.032;8.960;2023-03-01T02:28:42;38.05;36.80;39.36;;
61270;Laerm;47150;53.032;8.960;2023-03-01T02:31:11;38.04;36.82;39.31;;
61270;Laerm;47150;53.032;8.960;2023-03-01T02:33:58;38.05;36.85;39.43;;
61270;Laerm;47150;53.032;8.960;2023-03-01T02:36:26;38.06;36.76;39.15;;
61270;Laerm;47150;53.032;8.960;2023-03-01T02:38:57;38.07;36.79;39.25;;
61270;Laerm;47150;53.032;8.960;2023-03-01T02:41:25;38.06;36.77;39.22;;
61270;Laerm;47150;53.032;8.960;2023-03-01T02:44:04;38.08;36.71;39.34;;
61270;Laerm;47150;53.032;8.960;2023-03-01T02:46:30;38.09;36.80;39.26;;
61270;Laerm;47150;53.032;8.960;2023-03-01T02:48:57;38.08;36.78;39.10;;
61270;Laerm;47150;53.032;8.960;2023-03-01T02:54:31;38.07;36.71;39.28;;
61270;Laerm;47150;53.032;8.960;2023-03-01T02:56:59;38.07;36.78;39.31;;
61270;Laerm;47150;53.032;8.960;2023-03-01T02:59:28;38.06;36.85;39.19;;
61270;Laerm;47150;53.032;8.960;2023-03-01T03:01:55;38.08;36.82;39.35;;
61270;Laerm;47150;53.032;8.960;2023-03-01T03:04:21;38.11;36.85;39.25;;
61270;Laerm;47150;53.032;8.960;2023-03-01T03:06:47;38.13;36.87;39.22;;
61270;Laerm;47150;53.032;8.960;2023-03-01T03:09:14;38.14;36.77;39.46;;
61270;Laerm;47150;53.032;8.960;2023-03-01T03:11:41;38.14;36.95;39.28;;
61270;Laerm;47150;53.032;8.960;2023-03-01T03:14:11;38.15;36.79;39.44;;
61270;Laerm;47150;53.032;8.960;2023-03-01T03:16:49;38.16;36.80;39.39;;
61270;Laerm;47150;53.032;8.960;2023-03-01T03:19:16;38.14;36.84;39.36;;
61270;Laerm;47150;53.032;8.960;2023-03-01T03:21:41;38.13;37.03;39.39;;
61270;Laerm;47150;53.032;8.960;2023-03-01T03:24:07;38.09;36.77;39.33;;
61270;Laerm;47150;53.032;8.960;2023-03-01T03:26:33;38.07;36.75;39.25;;
61270;Laerm;47150;53.032;8.960;2023-03-01T03:28:58;38.02;36.65;39.24;;
61270;Laerm;47150;53.032;8.960;2023-03-01T03:31:24;38.00;36.59;39.18;;
61270;Laerm;47150;53.032;8.960;2023-03-01T03:33:49;37.96;36.53;39.53;;
61270;Laerm;47150;53.032;8.960;2023-03-01T03:36:19;37.92;36.78;39.06;;
61270;Laerm;47150;53.032;8.960;2023-03-01T03:38:46;37.91;36.70;39.29;;
61270;Laerm;47150;53.032;8.960;2023-03-01T03:41:12;37.88;36.66;38.97;;
61270;Laerm;47150;53.032;8.960;2023-03-01T03:43:39;37.81;36.47;39.08;;
61270;Laerm;47150;53.032;8.960;2023-03-01T03:46:06;37.80;36.63;38.98;;
61270;Laerm;47150;53.032;8.960;2023-03-01T03:48:36;37.77;36.51;38.86;;
61270;Laerm;47150;53.032;8.960;2023-03-01T03:51:02;37.75;36.51;38.88;;
61270;Laerm;47150;53.032;8.960;2023-03-01T03:53:31;37.70;36.45;38.85;;
61270;Laerm;47150;53.032;8.960;2023-03-01T03:55:56;37.68;36.22;38.84;;
61270;Laerm;47150;53.032;8.960;2023-03-01T03:58:24;37.66;36.30;38.78;;
61270;Laerm;47150;53.032;8.960;2023-03-01T04:00:53;37.64;36.36;38.74;;
61270;Laerm;47150;53.032;8.960;2023-03-01T04:03:19;37.61;36.23;38.64;;
61270;Laerm;47150;53.032;8.960;2023-03-01T04:05:45;37.60;36.06;38.77;;
61270;Laerm;47150;53.032;8.960;2023-03-01T04:08:11;37.58;36.21;38.88;;
61270;Laerm;47150;53.032;8.960;2023-03-01T04:10:39;37.55;36.27;38.63;;
61270;Laerm;47150;53.032;8.960;2023-03-01T04:13:06;37.52;36.17;38.77;;
61270;Laerm;47150;53.032;8.960;2023-03-01T04:15:33;37.50;36.29;38.79;;
61270;Laerm;47150;53.032;8.960;2023-03-01T04:17:58;37.47;36.23;38.59;;
61270;Laerm;47150;53.032;8.960;2023-03-01T04:20:30;37.45;36.09;38.77;;
61270;Laerm;47150;53.032;8.960;2023-03-01T04:23:04;37.42;36.28;38.59;;
61270;Laerm;47150;53.032;8.960;2023-03-01T04:25:56;37.37;36.17;38.62;;
61270;Laerm;47150;53.032;8.960;2023-03-01T04:30:53;37.31;35.88;38.50;;
61270;Laerm;47150;53.032;8.960;2023-03-01T04:33:19;37.28;36.21;38.46;;
61270;Laerm;47150;53.032;8.960;2023-03-01T04:35:44;37.27;36.02;38.34;;
61270;Laerm;47150;53.032;8.960;2023-03-01T04:38:10;37.28;35.83;38.45;;
61270;Laerm;47150;53.032;8.960;2023-03-01T04:40:35;37.30;36.07;38.41;;
61270;Laerm;47150;53.032;8.960;2023-03-01T04:43:02;37.31;36.14;38.62;;
61270;Laerm;47150;53.032;8.960;2023-03-01T04:45:27;37.32;35.85;38.40;;
61270;Laerm;47150;53.032;8.960;2023-03-01T04:47:53;37.33;35.95;38.52;;
61270;Laerm;47150;53.032;8.960;2023-03-01T04:50:19;37.34;36.06;38.41;;
61270;Laerm;47150;53.032;8.960;2023-03-01T04:52:49;37.33;36.15;38.40;;
61270;Laerm;47150;53.032;8.960;2023-03-01T04:55:14;37.31;36.02;38.60;;
61270;Laerm;47150;53.032;8.960;2023-03-01T04:57:40;37.32;36.06;38.43;;
61270;Laerm;47150;53.032;8.960;2023-03-01T05:00:08;37.31;35.96;38.45;;
61270;Laerm;47150;53.032;8.960;2023-03-01T05:02:57;37.31;36.09;38.56;;
61270;Laerm;47150;53.032;8.960;2023-03-01T05:05:33;37.32;36.05;38.75;;
61270;Laerm;47150;53.032;8.960;2023-03-01T05:08:01;37.33;36.03;38.38;;
61270;Laerm;47150;53.032;8.960;2023-03-01T05:10:30;37.32;35.95;38.46;;
61270;Laerm;47150;53.032;8.960;2023-03-01T05:12:57;37.33;36.05;38.50;;
61270;Laerm;47150;53.032;8.960;2023-03-01T05:15:23;37.35;36.22;38.42;;
61270;Laerm;47150;53.032;8.960;2023-03-01T05:17:51;37.38;36.13;38.57;;
61270;Laerm;47150;53.032;8.960;2023-03-01T05:20:16;37.40;36.11;38.70;;
61270;Laerm;47150;53.032;8.960;2023-03-01T05:22:42;37.40;36.11;38.61;;
61270;Laerm;47150;53.032;8.960;2023-03-01T05:25:08;37.39;36.23;38.68;;
61270;Laerm;47150;53.032;8.960;2023-03-01T05:27:34;37.41;36.23;38.49;;
61270;Laerm;47150;53.032;8.960;2023-03-01T05:30:00;37.41;36.08;38.58;;
61270;Laerm;47150;53.032;8.960;2023-03-01T05:32:41;37.43;36.22;38.80;;
61270;Laerm;47150;53.032;8.960;2023-03-01T05:35:08;37.43;36.32;38.44;;
61270;Laerm;47150;53.032;8.960;2023-03-01T05:37:34;37.42;35.97;38.61;;
61270;Laerm;47150;53.032;8.960;2023-03-01T05:40:01;37.42;36.02;38.56;;
61270;Laerm;47150;53.032;8.960;2023-03-01T05:42:26;37.41;36.09;38.58;;
61270;Laerm;47150;53.032;8.960;2023-03-01T05:44:51;37.42;36.06;38.91;;
61270;Laerm;47150;53.032;8.960;2023-03-01T05:47:17;37.42;36.11;38.69;;
61270;Laerm;47150;53.032;8.960;2023-03-01T05:49:42;37.44;36.22;38.46;;
61270;Laerm;47150;53.032;8.960;2023-03-01T05:52:07;37.47;36.20;38.56;;
61270;Laerm;47150;53.032;8.960;2023-03-01T05:54:32;37.50;36.21;38.57;;
61270;Laerm;47150;53.032;8.960;2023-03-01T05:56:58;37.52;36.17;38.62;;
61270;Laerm;47150;53.032;8.960;2023-03-01T05:59:23;37.52;36.32;38.87;;
61270;Laerm;47150;53.032;8.960;2023-03-01T06:01:48;37.54;36.04;38.70;;
61270;Laerm;47150;53.032;8.960;2023-03-01T06:04:15;37.54;36.21;38.75;;
61270;Laerm;47150;53.032;8.960;2023-03-01T06:06:40;37.53;36.29;38.73;;
61270;Laerm;47150;53.032;8.960;2023-03-01T06:09:06;37.52;36.27;38.74;;
61270;Laerm;47150;53.032;8.960;2023-03-01T06:11:35;37.50;36.42;38.65;;
61270;Laerm;47150;53.032;8.960;2023-03-01T06:14:01;37.49;36.18;38.55;;
61270;Laerm;47150;53.032;8.960;2023-03-01T06:16:26;37.47;36.27;38.88;;
61270;Laerm;47150;53.032;8.960;2023-03-01T06:18:52;37.47;36.28;38.55;;
61270;Laerm;47150;53.032;8.960;2023-03-01T06:21:17;37.47;36.05;38.61;;
61270;Laerm;47150;53.032;8.960;2023-03-01T06:23:42;37.46;36.21;38.85;;
61270;Laerm;47150;53.032;8.960;2023-03-01T06:26:08;37.46;36.15;38.54;;
61270;Laerm;47150;53.032;8.960;2023-03-01T06:28:34;37.45;36.14;38.54;;
61270;Laerm;47150;53.032;8.960;2023-03-01T06:31:00;37.46;35.88;38.70;;
61270;Laerm;47150;53.032;8.960;2023-03-01T06:33:26;37.43;36.09;38.66;;
61270;Laerm;47150;53.032;8.960;2023-03-01T06:35:54;37.42;36.06;38.64;;
61270;Laerm;47150;53.032;8.960;2023-03-01T06:38:20;37.44;36.18;38.56;;
61270;Laerm;47150;53.032;8.960;2023-03-01T06:40:51;37.50;36.40;38.63;;
61270;Laerm;47150;53.032;8.960;2023-03-01T06:43:17;37.57;36.41;38.73;;
61270;Laerm;47150;53.032;8.960;2023-03-01T06:45:42;37.65;36.21;38.88;;
61270;Laerm;47150;53.032;8.960;2023-03-01T06:48:08;37.73;36.55;38.89;;
61270;Laerm;47150;53.032;8.960;2023-03-01T06:50:34;37.82;36.67;39.01;;
61270;Laerm;47150;53.032;8.960;2023-03-01T06:53:00;37.86;36.58;39.27;;
61270;Laerm;47150;53.032;8.960;2023-03-01T06:55:25;37.90;36.73;39.07;;
61270;Laerm;47150;53.032;8.960;2023-03-01T06:57:56;37.92;36.68;39.13;;
61270;Laerm;47150;53.032;8.960;2023-03-01T07:00:22;37.93;36.48;39.18;;
61270;Laerm;47150;53.032;8.960;2023-03-01T07:02:47;37.95;36.80;39.36;;
61270;Laerm;47150;53.032;8.960;2023-03-01T07:05:13;37.95;36.54;39.23;;
61270;Laerm;47150;53.032;8.960;2023-03-01T07:07:38;37.97;36.79;39.11;;
61270;Laerm;47150;53.032;8.960;2023-03-01T07:10:04;38.00;36.60;39.10;;
61270;Laerm;47150;53.032;8.960;2023-03-01T07:12:30;38.01;36.73;39.19;;
61270;Laerm;47150;53.032;8.960;2023-03-01T07:14:55;38.04;36.78;39.09;;
61270;Laerm;47150;53.032;8.960;2023-03-01T07:17:20;38.07;36.81;39.35;;
61270;Laerm;47150;53.032;8.960;2023-03-01T07:19:46;38.15;36.73;39.30;;
61270;Laerm;47150;53.032;8.960;2023-03-01T07:22:11;38.19;37.02;39.32;;
61270;Laerm;47150;53.032;8.960;2023-03-01T07:24:37;38.25;36.88;39.42;;
61270;Laerm;47150;53.032;8.960;2023-03-01T07:27:02;38.32;36.91;39.50;;
61270;Laerm;47150;53.032;8.960;2023-03-01T07:29:28;38.37;37.22;39.60;;
61270;Laerm;47150;53.032;8.960;2023-03-01T07:31:54;38.39;37.13;39.57;;
61270;Laerm;47150;53.032;8.960;2023-03-01T07:34:19;38.39;36.91;39.69;;
61270;Laerm;47150;53.032;8.960;2023-03-01T07:36:45;38.36;37.00;39.57;;
61270;Laerm;47150;53.032;8.960;2023-03-01T07:39:10;38.36;36.82;39.66;;
61270;Laerm;47150;53.032;8.960;2023-03-01T07:41:36;38.37;37.09;39.64;;
61270;Laerm;47150;53.032;8.960;2023-03-01T07:44:02;38.37;37.01;39.61;;
61270;Laerm;47150;53.032;8.960;2023-03-01T07:46:27;38.38;36.92;39.68;;
61270;Laerm;47150;53.032;8.960;2023-03-01T07:48:53;38.38;37.04;39.53;;
61270;Laerm;47150;53.032;8.960;2023-03-01T07:51:18;38.38;37.12;39.54;;
61270;Laerm;47150;53.032;8.960;2023-03-01T07:53:46;38.37;37.11;39.64;;
61270;Laerm;47150;53.032;8.960;2023-03-01T07:56:13;38.29;36.98;39.59;;
61270;Laerm;47150;53.032;8.960;2023-03-01T07:58:42;38.09;36.74;39.58;;
61270;Laerm;47150;53.032;8.960;2023-03-01T08:01:11;37.90;36.44;39.13;;
61270;Laerm;47150;53.032;8.960;2023-03-01T08:03:37;37.80;36.20;39.02;;
61270;Laerm;47150;53.032;8.960;2023-03-01T08:06:04;37.76;36.45;39.23;;
61270;Laerm;47150;53.032;8.960;2023-03-01T08:08:30;37.73;36.37;38.91;;
61270;Laerm;47150;53.032;8.960;2023-03-01T08:10:57;37.70;36.35;39.02;;
61270;Laerm;47150;53.032;8.960;2023-03-01T08:13:23;37.68;36.22;39.10;;
61270;Laerm;47150;53.032;8.960;2023-03-01T08:15:49;37.67;36.21;38.94;;
61270;Laerm;47150;53.032;8.960;2023-03-01T08:18:15;37.67;36.25;39.01;;
61270;Laerm;47150;53.032;8.960;2023-03-01T08:20:41;37.66;36.36;38.78;;
61270;Laerm;47150;53.032;8.960;2023-03-01T08:23:06;37.66;36.10;39.10;;
61270;Laerm;47150;53.032;8.960;2023-03-01T08:25:31;37.65;36.40;38.82;;
61270;Laerm;47150;53.032;8.960;2023-03-01T08:27:57;37.67;36.17;38.78;;
61270;Laerm;47150;53.032;8.960;2023-03-01T08:30:22;37.67;36.20;39.12;;
61270;Laerm;47150;53.032;8.960;2023-03-01T08:32:49;37.64;36.18;38.86;;
61270;Laerm;47150;53.032;8.960;2023-03-01T08:35:15;37.63;36.28;38.84;;
61270;Laerm;47150;53.032;8.960;2023-03-01T08:37:41;37.64;36.37;38.92;;
61270;Laerm;47150;53.032;8.960;2023-03-01T08:40:06;37.65;36.25;38.71;;
61270;Laerm;47150;53.032;8.960;2023-03-01T08:42:33;37.67;36.23;39.01;;
61270;Laerm;47150;53.032;8.960;2023-03-01T08:44:59;37.67;36.11;38.92;;
61270;Laerm;47150;53.032;8.960;2023-03-01T08:47:24;37.62;36.07;38.96;;
61270;Laerm;47150;53.032;8.960;2023-03-01T08:49:50;37.61;36.35;39.03;;
61270;Laerm;47150;53.032;8.960;2023-03-01T08:52:16;37.63;36.32;39.10;;
61270;Laerm;47150;53.032;8.960;2023-03-01T08:54:41;37.59;36.18;38.90;;
61270;Laerm;47150;53.032;8.960;2023-03-01T08:57:06;37.52;36.08;38.71;;
61270;Laerm;47150;53.032;8.960;2023-03-01T08:59:31;37.50;36.02;38.74;;
61270;Laerm;47150;53.032;8.960;2023-03-01T09:02:02;37.46;36.23;38.63;;
61270;Laerm;47150;53.032;8.960;2023-03-01T09:04:28;37.31;36.02;38.89;;
61270;Laerm;47150;53.032;8.960;2023-03-01T09:06:53;37.23;35.87;38.51;;
61270;Laerm;47150;53.032;8.960;2023-03-01T09:09:19;37.21;35.75;38.63;;
61270;Laerm;47150;53.032;8.960;2023-03-01T09:11:45;37.24;35.66;38.84;;
61270;Laerm;47150;53.032;8.960;2023-03-01T09:14:15;37.23;36.04;38.62;;
61270;Laerm;47150;53.032;8.960;2023-03-01T09:16:41;37.22;35.88;38.50;;
61270;Laerm;47150;53.032;8.960;2023-03-01T09:19:06;37.21;35.85;38.44;;
61270;Laerm;47150;53.032;8.960;2023-03-01T09:21:32;37.19;35.88;38.48;;
61270;Laerm;47150;53.032;8.960;2023-03-01T09:23:58;37.12;35.76;38.42;;
61270;Laerm;47150;53.032;8.960;2023-03-01T09:26:24;37.12;35.86;38.33;;
61270;Laerm;47150;53.032;8.960;2023-03-01T09:28:51;37.12;35.52;38.44;;
61270;Laerm;47150;53.032;8.960;2023-03-01T09:31:19;37.07;35.81;38.46;;
61270;Laerm;47150;53.032;8.960;2023-03-01T09:33:49;37.04;35.58;38.34;;
61270;Laerm;47150;53.032;8.960;2023-03-01T09:36:19;36.98;35.59;38.20;;
61270;Laerm;47150;53.032;8.960;2023-03-01T09:38:46;36.93;35.48;38.19;;
61270;Laerm;47150;53.032;8.960;2023-03-01T09:46:38;36.74;35.33;38.03;;
61270;Laerm;47150;53.032;8.960;2023-03-01T09:49:15;36.67;35.14;38.03;;
61270;Laerm;47150;53.032;8.960;2023-03-01T09:51:43;36.64;35.05;38.50;;
61270;Laerm;47150;53.032;8.960;2023-03-01T09:54:14;36.58;35.10;38.09;;
61270;Laerm;47150;53.032;8.960;2023-03-01T09:59:59;36.52;34.80;37.86;;
61270;Laerm;47150;53.032;8.960;2023-03-01T10:05:27;36.49;34.83;37.87;;
61270;Laerm;47150;53.032;8.960;2023-03-01T10:11:30;36.29;34.81;37.63;;
61270;Laerm;47150;53.032;8.960;2023-03-01T10:16:37;36.23;34.85;40.41;;
61270;Laerm;47150;53.032;8.960;2023-03-01T10:19:05;36.27;34.78;37.64;;
61270;Laerm;47150;53.032;8.960;2023-03-01T10:21:41;36.03;34.48;37.29;;
61270;Laerm;47150;53.032;8.960;2023-03-01T10:24:14;35.75;34.23;37.32;;
61270;Laerm;47150;53.032;8.960;2023-03-01T10:26:48;35.50;34.14;36.94;;
61270;Laerm;47150;53.032;8.960;2023-03-01T10:29:16;35.30;33.86;36.72;;
61270;Laerm;47150;53.032;8.960;2023-03-01T10:31:48;35.04;33.46;36.53;;
61270;Laerm;47150;53.032;8.960;2023-03-01T10:34:20;34.95;33.66;36.23;;
61270;Laerm;47150;53.032;8.960;2023-03-01T10:36:50;34.72;32.93;36.14;;
61270;Laerm;47150;53.032;8.960;2023-03-01T10:39:22;34.59;33.11;35.89;;
61270;Laerm;47150;53.032;8.960;2023-03-01T10:44:46;34.40;32.83;35.91;;
61270;Laerm;47150;53.032;8.960;2023-03-01T10:47:18;34.29;32.90;36.00;;
61270;Laerm;47150;53.032;8.960;2023-03-01T10:50:04;34.27;32.82;36.04;;
61270;Laerm;47150;53.032;8.960;2023-03-01T10:52:37;34.16;32.61;35.57;;
61270;Laerm;47150;53.032;8.960;2023-03-01T10:58:19;34.17;32.85;35.45;;
61270;Laerm;47150;53.032;8.960;2023-03-01T11:00:52;34.03;32.36;35.49;;
61270;Laerm;47150;53.032;8.960;2023-03-01T11:03:24;33.96;32.50;35.42;;
61270;Laerm;47150;53.032;8.960;2023-03-01T11:05:51;33.96;32.51;35.42;;
61270;Laerm;47150;53.032;8.960;2023-03-01T11:08:33;33.95;32.57;35.30;;
61270;Laerm;47150;53.032;8.960;2023-03-01T11:11:06;33.93;32.45;35.17;;
61270;Laerm;47150;53.032;8.960;2023-03-01T11:13:32;33.85;32.52;35.23;;
61270;Laerm;47150;53.032;8.960;2023-03-01T11:16:03;33.93;32.63;35.33;;
61270;Laerm;47150;53.032;8.960;2023-03-01T11:18:31;33.83;32.46;35.13;;
61270;Laerm;47150;53.032;8.960;2023-03-01T11:20:58;33.81;32.23;35.02;;
61270;Laerm;47150;53.032;8.960;2023-03-01T11:23:25;33.77;32.24;35.11;;
61270;Laerm;47150;53.032;8.960;2023-03-01T11:25:57;33.76;32.32;35.31;;
61270;Laerm;47150;53.032;8.960;2023-03-01T11:28:26;33.72;32.33;35.02;;
61270;Laerm;47150;53.032;8.960;2023-03-01T11:36:41;33.78;31.89;35.39;;
61270;Laerm;47150;53.032;8.960;2023-03-01T11:39:33;33.82;32.07;35.20;;
61270;Laerm;47150;53.032;8.960;2023-03-01T11:42:06;33.78;32.41;35.11;;
61270;Laerm;47150;53.032;8.960;2023-03-01T11:44:37;33.76;32.13;35.18;;
61270;Laerm;47150;53.032;8.960;2023-03-01T12:01:31;33.77;32.20;35.17;;
61270;Laerm;47150;53.032;8.960;2023-03-01T12:04:58;33.80;32.20;35.06;;
61270;Laerm;47150;53.032;8.960;2023-03-01T12:07:00;33.86;32.28;35.24;;
61270;Laerm;47150;53.032;8.960;2023-03-01T12:12:43;33.87;32.11;35.25;;
61270;Laerm;47150;53.032;8.960;2023-03-01T12:23:27;33.83;32.43;35.08;;
61270;Laerm;47150;53.032;8.960;2023-03-01T12:26:29;33.92;32.46;35.24;;
61270;Laerm;47150;53.032;8.960;2023-03-01T12:34:59;34.03;32.55;35.50;;
61270;Laerm;47150;53.032;8.960;2023-03-01T12:37:47;33.99;32.49;35.86;;
61270;Laerm;47150;53.032;8.960;2023-03-01T12:51:06;34.23;32.82;35.52;;
61270;Laerm;47150;53.032;8.960;2023-03-01T12:53:40;34.23;32.87;35.73;;
61270;Laerm;47150;53.032;8.960;2023-03-01T12:56:12;34.34;32.87;35.66;;
61270;Laerm;47150;53.032;8.960;2023-03-01T12:58:51;34.31;32.59;35.63;;
61270;Laerm;47150;53.032;8.960;2023-03-01T13:09:51;34.20;32.84;35.58;;
61270;Laerm;47150;53.032;8.960;2023-03-01T13:15:25;34.16;32.81;35.60;;
61270;Laerm;47150;53.032;8.960;2023-03-01T13:18:11;34.20;32.76;35.66;;
61270;Laerm;47150;53.032;8.960;2023-03-01T13:21:00;34.14;32.29;35.73;;
61270;Laerm;47150;53.032;8.960;2023-03-01T13:23:28;34.09;32.34;35.32;;
61270;Laerm;47150;53.032;8.960;2023-03-01T13:26:17;34.05;32.52;35.57;;
61270;Laerm;47150;53.032;8.960;2023-03-01T13:36:08;33.97;32.56;35.50;;
61270;Laerm;47150;53.032;8.960;2023-03-01T13:41:14;34.00;32.60;38.20;;
61270;Laerm;47150;53.032;8.960;2023-03-01T13:43:42;34.09;32.66;35.58;;
61270;Laerm;47150;53.032;8.960;2023-03-01T13:46:21;34.16;32.66;35.60;;
61270;Laerm;47150;53.032;8.960;2023-03-01T13:48:51;34.11;32.47;35.42;;
61270;Laerm;47150;53.032;8.960;2023-03-01T13:51:22;34.05;32.38;36.02;;
61270;Laerm;47150;53.032;8.960;2023-03-01T13:53:48;34.04;32.67;35.44;;
61270;Laerm;47150;53.032;8.960;2023-03-01T13:56:20;33.89;32.44;36.78;;
61270;Laerm;47150;53.032;8.960;2023-03-01T13:58:52;33.87;32.39;35.18;;
61270;Laerm;47150;53.032;8.960;2023-03-01T14:01:28;33.95;32.39;35.36;;
61270;Laerm;47150;53.032;8.960;2023-03-01T14:03:55;33.93;32.25;35.43;;
61270;Laerm;47150;53.032;8.960;2023-03-01T14:06:24;33.91;32.48;35.29;;
61270;Laerm;47150;53.032;8.960;2023-03-01T14:08:59;34.02;32.38;36.61;;
61270;Laerm;47150;53.032;8.960;2023-03-01T14:19:27;33.74;32.42;35.11;;
61270;Laerm;47150;53.032;8.960;2023-03-01T14:22:04;33.58;32.13;34.98;;
61270;Laerm;47150;53.032;8.960;2023-03-01T14:24:39;33.65;32.27;35.07;;
61270;Laerm;47150;53.032;8.960;2023-03-01T14:27:11;33.70;32.16;35.02;;
61270;Laerm;47150;53.032;8.960;2023-03-01T14:29:38;33.73;32.10;35.04;;
61270;Laerm;47150;53.032;8.960;2023-03-01T14:32:21;33.48;31.90;37.21;;
61270;Laerm;47150;53.032;8.960;2023-03-01T14:34:49;33.65;32.04;35.20;;
61270;Laerm;47150;53.032;8.960;2023-03-01T14:37:30;33.48;32.07;38.67;;
61270;Laerm;47150;53.032;8.960;2023-03-01T14:39:57;33.61;32.07;36.45;;
61270;Laerm;47150;53.032;8.960;2023-03-01T14:42:25;33.58;31.74;34.99;;
61270;Laerm;47150;53.032;8.960;2023-03-01T14:44:54;33.54;31.85;34.82;;
61270;Laerm;47150;53.032;8.960;2023-03-01T14:47:33;33.51;31.76;34.80;;
61270;Laerm;47150;53.032;8.960;2023-03-01T14:50:02;33.56;32.10;35.08;;
61270;Laerm;47150;53.032;8.960;2023-03-01T14:52:34;33.55;32.14;34.91;;
61270;Laerm;47150;53.032;8.960;2023-03-01T14:55:05;33.46;32.07;35.05;;
61270;Laerm;47150;53.032;8.960;2023-03-01T14:57:31;33.35;31.99;35.68;;
61270;Laerm;47150;53.032;8.960;2023-03-01T15:00:01;33.35;31.97;35.07;;
61270;Laerm;47150;53.032;8.960;2023-03-01T15:02:31;33.31;31.81;34.58;;
61270;Laerm;47150;53.032;8.960;2023-03-01T15:05:00;33.26;31.78;34.57;;
61270;Laerm;47150;53.032;8.960;2023-03-01T15:07:30;33.24;31.70;34.63;;
61270;Laerm;47150;53.032;8.960;2023-03-01T15:09:57;33.19;31.59;35.71;;
61270;Laerm;47150;53.032;8.960;2023-03-01T15:12:41;33.09;31.64;34.31;;
61270;Laerm;47150;53.032;8.960;2023-03-01T15:15:31;33.09;31.52;34.52;;
61270;Laerm;47150;53.032;8.960;2023-03-01T15:18:22;33.10;31.52;34.92;;
61270;Laerm;47150;53.032;8.960;2023-03-01T15:20:51;33.14;31.59;34.34;;
61270;Laerm;47150;53.032;8.960;2023-03-01T15:23:23;33.20;31.67;34.53;;
61270;Laerm;47150;53.032;8.960;2023-03-01T15:25:51;33.11;31.52;34.48;;
61270;Laerm;47150;53.032;8.960;2023-03-01T15:28:31;33.19;31.66;34.55;;
61270;Laerm;47150;53.032;8.960;2023-03-01T15:35:59;33.24;31.98;34.79;;
61270;Laerm;47150;53.032;8.960;2023-03-01T15:41:29;33.29;31.74;34.64;;
61270;Laerm;47150;53.032;8.960;2023-03-01T15:43:59;33.23;31.74;36.56;;
61270;Laerm;47150;53.032;8.960;2023-03-01T15:46:34;33.24;31.46;34.59;;
61270;Laerm;47150;53.032;8.960;2023-03-01T15:49:39;33.25;31.94;34.57;;
61270;Laerm;47150;53.032;8.960;2023-03-01T15:52:12;33.31;31.61;47.85;;
61270;Laerm;47150;53.032;8.960;2023-03-01T15:54:39;33.30;31.93;37.14;;
61270;Laerm;47150;53.032;8.960;2023-03-01T15:57:11;33.27;31.70;34.52;;
61270;Laerm;47150;53.032;8.960;2023-03-01T15:59:37;33.29;31.71;34.54;;
61270;Laerm;47150;53.032;8.960;2023-03-01T16:02:08;33.25;31.77;34.43;;